createdAt,value
2019-05-03T00:01:59.114Z,42.64
2019-05-03T00:04:25.675Z,42.45
2019-05-03T00:06:54.732Z,43.10
2019-05-03T00:09:23.200Z,43.59
2019-05-03T00:11:52.797Z,43.83
2019-05-03T00:14:18.522Z,43.98
2019-05-03T00:16:49.128Z,45.37
2019-05-03T00:19:16.728Z,44.24
2019-05-03T00:21:47.287Z,44.51
2019-05-03T00:24:16.089Z,43.99
2019-05-03T00:26:47.973Z,44.22
2019-05-03T00:29:18.212Z,44.67
2019-05-03T00:31:47.562Z,44.74
2019-05-03T00:34:14.170Z,44.59
2019-05-03T00:36:41.938Z,45.09
2019-05-03T00:39:12.203Z,44.72
2019-05-03T00:41:39.002Z,45.71
2019-05-03T00:44:05.600Z,45.50
2019-05-03T00:46:32.749Z,45.04
2019-05-03T00:48:59.449Z,45.58
2019-05-03T00:51:26.098Z,45.57
2019-05-03T00:53:53.255Z,46.24
2019-05-03T00:56:21.587Z,46.64
2019-05-03T00:58:48.624Z,46.89
2019-05-03T01:01:15.280Z,48.15
2019-05-03T01:03:46.515Z,47.87
2019-05-03T01:06:13.134Z,47.76
2019-05-03T01:08:41.835Z,47.80
2019-05-03T01:11:08.503Z,47.68
2019-05-03T01:13:36.536Z,47.65
2019-05-03T01:16:03.463Z,47.37
2019-05-03T01:18:30.078Z,47.36
2019-05-03T01:20:56.970Z,48.02
2019-05-03T01:23:27.168Z,48.06
2019-05-03T01:25:53.907Z,48.41
2019-05-03T01:28:21.619Z,48.05
2019-05-03T01:30:48.353Z,47.95
2019-05-03T01:33:19.175Z,47.96
2019-05-03T01:35:45.543Z,47.77
2019-05-03T01:38:12.299Z,47.69
2019-05-03T01:40:39.515Z,46.96
2019-05-03T01:43:06.126Z,47.10
2019-05-03T01:45:32.752Z,47.27
2019-05-03T01:47:59.387Z,47.20
2019-05-03T01:50:26.011Z,47.78
2019-05-03T01:52:53.068Z,47.78
2019-05-03T01:55:19.690Z,47.85
2019-05-03T01:57:46.577Z,48.56
2019-05-03T02:00:13.174Z,47.94
2019-05-03T02:02:41.857Z,46.96
2019-05-03T02:05:08.337Z,47.85
2019-05-03T02:07:34.941Z,47.96
2019-05-03T02:10:02.780Z,47.41
2019-05-03T02:12:29.467Z,47.00
2019-05-03T02:14:56.324Z,47.22
2019-05-03T02:17:23.239Z,47.71
2019-05-03T02:19:50.181Z,47.92
2019-05-03T02:22:17.107Z,48.21
2019-05-03T02:24:44.002Z,48.90
2019-05-03T02:27:12.584Z,49.32
2019-05-03T02:29:41.725Z,48.91
2019-05-03T02:32:08.148Z,49.26
2019-05-03T02:34:36.797Z,49.49
2019-05-03T02:37:04.831Z,49.53
2019-05-03T02:39:33.407Z,50.03
2019-05-03T02:42:10.101Z,50.22
2019-05-03T02:44:30.684Z,50.51
2019-05-03T02:46:59.644Z,49.61
2019-05-03T02:49:26.908Z,49.92
2019-05-03T02:51:55.546Z,49.91
2019-05-03T02:54:26.747Z,50.06
2019-05-03T02:56:51.340Z,50.43
2019-05-03T02:59:18.173Z,50.34
2019-05-03T03:01:46.535Z,50.30
2019-05-03T03:04:15.696Z,50.30
2019-05-03T03:06:45.291Z,50.36
2019-05-03T03:09:11.411Z,49.71
2019-05-03T03:11:37.987Z,49.79
2019-05-03T03:14:05.815Z,50.21
2019-05-03T03:16:32.705Z,50.44
2019-05-03T03:18:59.283Z,50.38
2019-05-03T03:21:26.193Z,50.25
2019-05-03T03:23:56.200Z,50.07
2019-05-03T03:26:36.433Z,50.54
2019-05-03T03:28:51.115Z,50.97
2019-05-03T03:31:18.092Z,51.37
2019-05-03T03:33:47.407Z,51.80
2019-05-03T03:36:42.320Z,51.96
2019-05-03T03:38:41.938Z,52.08
2019-05-03T03:41:08.878Z,51.67
2019-05-03T03:43:35.626Z,51.69
2019-05-03T03:46:05.271Z,51.53
2019-05-03T03:48:30.801Z,51.57
2019-05-03T03:50:57.578Z,51.58
2019-05-03T03:53:26.331Z,51.51
2019-05-03T03:55:52.641Z,51.06
2019-05-03T03:58:22.664Z,50.78
2019-05-03T04:00:50.178Z,50.67
2019-05-03T04:03:16.765Z,50.96
2019-05-03T04:05:46.833Z,50.66
2019-05-03T04:08:16.155Z,50.84
2019-05-03T04:10:42.354Z,50.78
2019-05-03T04:13:09.542Z,50.21
2019-05-03T04:15:37.243Z,50.72
2019-05-03T04:18:05.648Z,50.46
2019-05-03T04:20:32.379Z,51.34
2019-05-03T04:22:59.234Z,51.24
2019-05-03T04:25:26.762Z,50.71
2019-05-03T04:27:56.030Z,50.77
2019-05-03T04:30:22.318Z,50.71
2019-05-03T04:32:49.184Z,50.96
2019-05-03T04:35:18.191Z,50.94
2019-05-03T04:37:45.549Z,51.25
2019-05-03T04:40:15.628Z,50.76
2019-05-03T04:42:41.729Z,50.66
2019-05-03T04:45:08.329Z,50.88
2019-05-03T04:47:35.734Z,51.08
2019-05-03T04:50:05.381Z,50.92
2019-05-03T04:52:30.886Z,50.47
2019-05-03T04:54:58.934Z,50.20
2019-05-03T04:57:36.359Z,50.53
2019-05-03T04:59:55.994Z,50.71
2019-05-03T05:02:22.355Z,49.80
2019-05-03T05:04:49.039Z,49.34
2019-05-03T05:07:15.846Z,49.54
2019-05-03T05:09:42.544Z,49.34
2019-05-03T05:12:09.151Z,49.15
2019-05-03T05:14:37.792Z,49.08
2019-05-03T05:17:06.078Z,49.09
2019-05-03T05:19:33.006Z,49.66
2019-05-03T05:21:59.816Z,49.50
2019-05-03T05:24:26.408Z,49.84
2019-05-03T05:26:55.030Z,49.66
2019-05-03T05:29:21.676Z,49.42
2019-05-03T05:31:48.462Z,49.00
2019-05-03T05:34:15.413Z,48.34
2019-05-03T05:36:42.041Z,48.58
2019-05-03T05:39:09.954Z,47.89
2019-05-03T05:41:36.883Z,47.53
2019-05-03T05:44:05.267Z,47.42
2019-05-03T05:46:31.804Z,46.96
2019-05-03T05:48:58.755Z,46.80
2019-05-03T05:51:25.894Z,46.65
2019-05-03T05:53:54.787Z,47.22
2019-05-03T05:56:21.966Z,47.21
2019-05-03T05:58:48.822Z,47.76
2019-05-03T06:01:15.717Z,47.55
2019-05-03T06:03:42.338Z,47.70
2019-05-03T06:06:11.473Z,46.39
2019-05-03T06:08:38.073Z,46.74
2019-05-03T06:11:04.952Z,47.13
2019-05-03T06:13:31.540Z,47.73
2019-05-03T06:16:02.728Z,48.04
2019-05-03T06:18:29.669Z,49.12
2019-05-03T06:20:56.549Z,49.04
2019-05-03T06:23:24.803Z,50.35
2019-05-03T06:25:51.671Z,48.91
2019-05-03T06:28:25.276Z,50.34
2019-05-03T06:30:54.466Z,49.83
2019-05-03T06:33:24.657Z,50.58
2019-05-03T06:35:51.578Z,50.91
2019-05-03T06:38:19.838Z,50.62
2019-05-03T06:40:47.777Z,49.68
2019-05-03T06:43:29.720Z,49.35
2019-05-03T06:45:58.945Z,48.86
2019-05-03T06:48:32.051Z,49.21
2019-05-03T06:51:00.395Z,49.09
2019-05-03T06:53:30.183Z,49.63
2019-05-03T06:58:47.320Z,49.96
2019-05-03T07:01:29.597Z,50.56
2019-05-03T07:04:05.142Z,50.04
2019-05-03T07:06:37.466Z,50.70
2019-05-03T07:09:02.299Z,50.61
2019-05-03T07:11:29.428Z,50.52
2019-05-03T07:13:57.800Z,51.22
2019-05-03T07:16:25.762Z,50.76
2019-05-03T07:18:56.558Z,50.66
2019-05-03T07:21:24.818Z,50.44
2019-05-03T07:26:39.965Z,50.07
2019-05-03T07:29:10.543Z,50.27
2019-05-03T07:31:41.698Z,50.09
2019-05-03T07:34:10.117Z,49.75
2019-05-03T07:36:39.581Z,48.74
2019-05-03T07:39:11.547Z,48.50
2019-05-03T07:41:44.535Z,48.21
2019-05-03T07:44:09.839Z,48.32
2019-05-03T07:46:48.620Z,47.91
2019-05-03T07:49:17.600Z,47.91
2019-05-03T07:51:46.852Z,48.68
2019-05-03T07:54:15.694Z,47.68
2019-05-03T07:56:46.843Z,48.12
2019-05-03T07:59:18.754Z,46.83
2019-05-03T08:01:54.522Z,46.62
2019-05-03T08:04:19.414Z,46.26
2019-05-03T08:06:47.045Z,46.41
2019-05-03T08:09:16.412Z,45.65
2019-05-03T08:14:31.447Z,43.72
2019-05-03T08:17:07.413Z,45.99
2019-05-03T08:19:39.662Z,44.27
2019-05-03T08:22:10.836Z,44.15
2019-05-03T08:24:37.818Z,44.36
2019-05-03T08:27:06.718Z,44.63
2019-05-03T08:29:35.210Z,44.63
2019-05-03T08:32:04.980Z,43.79
2019-05-03T08:34:37.763Z,44.05
2019-05-03T08:37:05.285Z,43.96
2019-05-03T08:39:44.755Z,43.97
2019-05-03T08:42:12.543Z,43.29
2019-05-03T08:44:42.358Z,42.94
2019-05-03T08:47:11.419Z,43.16
2019-05-03T08:49:42.005Z,43.52
2019-05-03T08:52:12.492Z,43.02
2019-05-03T08:54:40.147Z,42.60
2019-05-03T08:57:09.916Z,42.83
2019-05-03T08:59:39.858Z,42.83
2019-05-03T09:02:16.393Z,42.40
2019-05-03T09:04:42.904Z,42.58
2019-05-03T09:07:07.162Z,41.13
2019-05-03T09:09:34.966Z,41.63
2019-05-03T09:12:04.690Z,41.54
2019-05-03T09:14:41.356Z,41.46
2019-05-03T09:17:04.946Z,41.33
2019-05-03T09:19:34.559Z,40.00
2019-05-03T09:22:02.723Z,40.03
2019-05-03T09:27:20.878Z,40.25
2019-05-03T09:29:55.621Z,37.96
2019-05-03T09:32:25.492Z,39.30
2019-05-03T09:34:55.062Z,39.73
2019-05-03T09:37:25.534Z,38.13
2019-05-03T09:39:55.188Z,38.50
2019-05-03T09:42:22.160Z,38.51
2019-05-03T09:44:52.904Z,37.90
2019-05-03T09:47:21.534Z,38.88
2019-05-03T09:49:48.793Z,40.32
2019-05-03T09:52:20.494Z,38.72
2019-05-03T09:54:50.910Z,38.39
2019-05-03T09:57:19.908Z,36.53
2019-05-03T09:59:56.522Z,37.26
2019-05-03T10:02:19.597Z,37.83
2019-05-03T10:04:46.470Z,37.38
2019-05-03T10:07:25.598Z,36.54
2019-05-03T10:09:55.202Z,36.08
2019-05-03T10:12:25.952Z,36.23
2019-05-03T10:14:54.833Z,34.67
2019-05-03T10:17:22.101Z,34.61
2019-05-03T10:19:54.709Z,34.38
2019-05-03T10:22:29.935Z,34.50
2019-05-03T10:25:01.469Z,34.23
2019-05-03T10:27:29.671Z,33.95
2019-05-03T10:30:10.516Z,33.60
2019-05-03T10:32:32.384Z,33.16
2019-05-03T10:35:01.050Z,32.86
2019-05-03T10:37:29.947Z,32.48
2019-05-03T10:39:59.155Z,33.72
2019-05-03T10:42:27.036Z,31.58
2019-05-03T10:44:56.592Z,32.65
2019-05-03T10:47:25.458Z,32.60
2019-05-03T10:49:52.241Z,33.10
2019-05-03T10:52:25.781Z,33.56
2019-05-03T10:54:52.797Z,32.90
2019-05-03T10:57:24.844Z,33.33
2019-05-03T10:59:55.590Z,33.16
2019-05-03T11:02:26.107Z,33.60
2019-05-03T11:04:55.640Z,34.26
2019-05-03T11:07:25.705Z,33.84
2019-05-03T11:09:55.241Z,34.27
2019-05-03T11:12:25.710Z,34.35
2019-05-03T11:14:54.682Z,34.99
2019-05-03T11:17:21.389Z,35.61
2019-05-03T11:19:48.815Z,35.36
2019-05-03T11:22:15.705Z,35.88
2019-05-03T11:24:45.308Z,37.56
2019-05-03T11:27:11.257Z,36.28
2019-05-03T11:29:39.454Z,35.74
2019-05-03T11:32:10.756Z,36.04
2019-05-03T11:34:37.523Z,36.21
2019-05-03T11:37:04.973Z,37.26
2019-05-03T11:39:34.369Z,37.06
2019-05-03T11:42:00.931Z,37.39
2019-05-03T11:44:28.197Z,37.86
2019-05-03T11:46:56.077Z,38.21
2019-05-03T11:49:27.281Z,38.57
2019-05-03T11:51:55.641Z,40.50
2019-05-03T11:54:25.009Z,42.68
2019-05-03T11:56:55.458Z,43.26
2019-05-03T11:59:22.419Z,44.10
2019-05-03T12:01:51.670Z,44.96
2019-05-03T12:04:21.321Z,45.19
2019-05-03T12:06:55.022Z,45.53
2019-05-03T12:09:24.414Z,45.99
2019-05-03T12:11:51.758Z,45.94
2019-05-03T12:14:20.995Z,46.12
2019-05-03T12:17:14.461Z,46.16
2019-05-03T12:22:07.754Z,45.89
2019-05-03T12:24:38.504Z,46.75
2019-05-03T12:27:05.507Z,46.13
2019-05-03T12:29:35.252Z,46.59
2019-05-03T12:32:05.269Z,47.39
2019-05-03T12:34:34.991Z,47.11
2019-05-03T12:37:05.149Z,48.13
2019-05-03T12:39:35.814Z,47.47
2019-05-03T12:42:02.897Z,47.62
2019-05-03T12:44:31.062Z,47.31
2019-05-03T12:46:58.680Z,46.99
2019-05-03T12:49:27.844Z,48.05
2019-05-03T12:51:55.778Z,47.57
2019-05-03T12:54:24.766Z,47.55
2019-05-03T12:56:55.596Z,46.78
2019-05-03T12:59:26.646Z,46.64
2019-05-03T13:01:55.636Z,46.32
2019-05-03T13:04:22.266Z,48.95
2019-05-03T13:09:40.342Z,48.14
2019-05-03T13:12:14.745Z,49.37
2019-05-03T13:14:40.222Z,48.80
2019-05-03T13:17:11.252Z,48.72
2019-05-03T13:19:41.155Z,49.00
2019-05-03T13:22:09.638Z,50.61
2019-05-03T13:24:37.236Z,49.97
2019-05-03T13:27:06.132Z,46.93
2019-05-03T13:29:35.601Z,48.33
2019-05-03T13:32:05.545Z,48.16
2019-05-03T13:34:35.206Z,48.38
2019-05-03T13:37:03.672Z,47.44
2019-05-03T13:39:39.447Z,48.10
2019-05-03T13:42:21.073Z,48.26
2019-05-03T13:44:49.537Z,48.96
2019-05-03T13:47:16.001Z,49.25
2019-05-03T13:49:45.449Z,48.70
2019-05-03T13:52:14.657Z,48.29
2019-05-03T13:54:45.238Z,48.18
2019-05-03T13:57:15.451Z,47.43
2019-05-03T13:59:45.523Z,48.69
2019-05-03T14:02:18.294Z,48.93
2019-05-03T14:04:52.353Z,49.61
2019-05-03T14:07:15.079Z,47.00
2019-05-03T14:09:45.110Z,47.92
2019-05-03T14:12:11.197Z,47.13
2019-05-03T14:14:39.978Z,45.51
2019-05-03T14:17:06.701Z,45.67
2019-05-03T14:19:37.005Z,45.64
2019-05-03T14:22:05.295Z,45.38
2019-05-03T14:24:38.029Z,45.38
2019-05-03T14:27:05.586Z,45.68
2019-05-03T14:29:34.950Z,46.81
2019-05-03T14:32:05.302Z,47.66
2019-05-03T14:34:35.890Z,46.72
2019-05-03T14:37:04.526Z,45.47
2019-05-03T14:39:31.186Z,45.43
2019-05-03T14:42:04.659Z,44.81
2019-05-03T14:44:37.976Z,46.64
2019-05-03T14:47:06.334Z,46.00
2019-05-03T14:49:35.855Z,45.98
2019-05-03T14:52:05.698Z,45.93
2019-05-03T14:54:35.596Z,44.94
2019-05-03T14:57:05.063Z,46.24
2019-05-03T14:59:31.745Z,47.31
2019-05-03T15:01:58.341Z,47.38
2019-05-03T15:07:11.903Z,47.26
2019-05-03T15:09:45.754Z,47.13
2019-05-03T15:12:10.407Z,48.47
2019-05-03T15:14:38.663Z,49.06
2019-05-03T15:17:06.990Z,50.26
2019-05-03T15:19:34.897Z,50.88
2019-05-03T15:22:02.798Z,51.05
2019-05-03T15:24:34.534Z,51.58
2019-05-03T15:27:04.914Z,52.10
2019-05-03T15:29:35.313Z,52.21
2019-05-03T15:32:05.132Z,52.06
2019-05-03T15:34:32.128Z,52.73
2019-05-03T15:37:02.297Z,52.05
2019-05-03T15:39:32.801Z,51.53
2019-05-03T15:42:00.757Z,51.84
2019-05-03T15:44:27.461Z,51.82
2019-05-03T15:46:57.319Z,52.19
2019-05-03T15:49:27.400Z,52.12
2019-05-03T15:51:56.175Z,52.05
2019-05-03T15:54:26.913Z,52.21
2019-05-03T15:56:55.649Z,52.66
2019-05-03T15:59:24.379Z,53.08
2019-05-03T16:01:51.253Z,53.17
2019-05-03T16:04:20.493Z,53.86
2019-05-03T16:06:49.027Z,54.32
2019-05-03T16:09:19.537Z,54.99
2019-05-03T16:11:47.107Z,54.46
2019-05-03T16:14:15.295Z,53.32
2019-05-03T16:16:42.598Z,53.61
2019-05-03T16:19:09.210Z,53.51
2019-05-03T16:21:39.764Z,53.29
2019-05-03T16:24:11.074Z,53.42
2019-05-03T16:26:44.545Z,52.81
2019-05-03T16:29:16.681Z,54.02
2019-05-03T16:31:45.193Z,54.84
2019-05-03T16:34:12.866Z,54.14
2019-05-03T16:36:43.056Z,55.15
2019-05-03T16:39:10.688Z,55.05
2019-05-03T16:41:41.111Z,55.16
2019-05-03T16:44:07.830Z,54.38
2019-05-03T16:46:38.996Z,54.05
2019-05-03T16:49:09.546Z,54.50
2019-05-03T16:51:36.400Z,54.72
2019-05-03T16:54:03.336Z,55.31
2019-05-03T16:56:36.269Z,54.64
2019-05-03T16:59:01.077Z,55.01
2019-05-03T17:01:35.212Z,54.78
2019-05-03T17:03:59.888Z,55.04
2019-05-03T17:06:28.827Z,55.08
2019-05-03T17:08:56.863Z,55.60
2019-05-03T17:11:26.463Z,55.56
2019-05-03T17:13:55.374Z,55.91
2019-05-03T17:16:21.757Z,55.78
2019-05-03T17:18:50.693Z,55.66
2019-05-03T17:21:20.183Z,55.98
2019-05-03T17:23:49.174Z,56.56
2019-05-03T17:26:17.578Z,56.92
2019-05-03T17:28:46.605Z,57.56
2019-05-03T17:31:20.851Z,58.08
2019-05-03T17:33:51.393Z,58.15
2019-05-03T17:36:18.111Z,59.11
2019-05-03T17:38:45.193Z,59.30
2019-05-03T17:41:11.830Z,59.19
2019-05-03T17:43:38.712Z,58.95
2019-05-03T17:46:07.238Z,58.60
2019-05-03T17:48:36.973Z,59.27
2019-05-03T17:51:05.557Z,59.02
2019-05-03T17:53:34.469Z,58.82
2019-05-03T17:56:06.225Z,58.94
2019-05-03T17:58:35.249Z,58.22
2019-05-03T18:01:10.489Z,58.34
2019-05-03T18:03:39.461Z,58.19
2019-05-03T18:06:06.394Z,58.03
2019-05-03T18:08:37.276Z,58.35
2019-05-03T18:11:04.557Z,58.56
2019-05-03T18:13:32.735Z,58.78
2019-05-03T18:16:01.576Z,59.06
2019-05-03T18:18:28.162Z,59.25
2019-05-03T18:20:57.085Z,59.63
2019-05-03T18:23:25.515Z,59.79
2019-05-03T18:25:52.417Z,59.77
2019-05-03T18:28:19.038Z,59.33
2019-05-03T18:30:49.047Z,58.54
2019-05-03T18:33:17.910Z,58.29
2019-05-03T18:35:44.125Z,58.78
2019-05-03T18:38:14.873Z,59.14
2019-05-03T18:40:45.079Z,59.57
2019-05-03T18:43:22.138Z,59.64
2019-05-03T18:45:54.418Z,59.87
2019-05-03T18:48:19.862Z,59.70
2019-05-03T18:50:50.901Z,59.90
2019-05-03T18:53:25.321Z,59.80
2019-05-03T18:55:52.117Z,59.44
2019-05-03T18:58:18.895Z,59.24
2019-05-03T19:00:45.631Z,59.36
2019-05-03T19:03:12.551Z,59.21
2019-05-03T19:05:39.496Z,59.73
2019-05-03T19:08:10.791Z,59.86
2019-05-03T19:10:47.806Z,59.86
2019-05-03T19:13:14.994Z,59.33
2019-05-03T19:15:42.136Z,58.99
2019-05-03T19:18:15.516Z,58.62
2019-05-03T19:20:45.430Z,58.85
2019-05-03T19:23:15.408Z,59.22
2019-05-03T19:25:47.009Z,59.25
2019-05-03T19:28:10.482Z,59.37
2019-05-03T19:30:37.466Z,59.16
2019-05-03T19:33:04.424Z,59.29
2019-05-03T19:49:07.856Z,58.74
2019-05-03T19:51:36.538Z,59.11
2019-05-03T19:54:05.267Z,59.42
2019-05-03T19:56:32.809Z,59.88
2019-05-03T19:58:59.465Z,60.43
2019-05-03T20:01:28.499Z,60.85
2019-05-03T20:03:58.071Z,61.03
2019-05-03T20:06:25.836Z,61.23
2019-05-03T20:08:55.416Z,61.42
2019-05-03T20:11:26.240Z,61.36
2019-05-03T20:13:52.893Z,60.95
2019-05-03T20:16:22.188Z,60.90
2019-05-03T20:18:55.386Z,61.35
2019-05-03T20:21:20.876Z,61.13
2019-05-03T20:23:47.502Z,61.45
2019-05-03T20:26:15.187Z,61.86
2019-05-03T20:28:45.901Z,61.51
2019-05-03T20:31:15.495Z,61.02
2019-05-03T20:33:45.713Z,61.25
2019-05-03T20:36:13.919Z,60.58
2019-05-03T20:38:44.530Z,59.13
2019-05-03T20:41:11.150Z,58.96
2019-05-03T20:43:39.095Z,58.79
2019-05-03T20:46:06.871Z,59.95
2019-05-03T20:48:36.258Z,59.89
2019-05-03T20:51:02.914Z,59.13
2019-05-03T20:53:30.799Z,59.25
2019-05-03T20:55:58.060Z,58.91
2019-05-03T20:58:25.234Z,59.50
2019-05-03T21:00:55.109Z,60.19
2019-05-03T21:03:24.799Z,60.37
2019-05-03T21:05:55.231Z,60.85
2019-05-03T21:08:26.412Z,61.07
2019-05-03T21:10:58.191Z,62.11
2019-05-03T21:13:38.595Z,62.07
2019-05-03T21:15:57.170Z,62.52
2019-05-03T21:18:24.417Z,62.39
2019-05-03T21:20:55.458Z,62.16
2019-05-03T21:23:24.968Z,62.01
2019-05-03T21:26:08.222Z,61.94
2019-05-03T21:28:21.787Z,61.82
2019-05-03T21:30:51.859Z,61.54
2019-05-03T21:33:21.023Z,61.64
2019-05-03T21:35:47.726Z,61.44
2019-05-03T21:38:24.615Z,61.34
2019-05-03T21:40:54.655Z,61.60
2019-05-03T21:43:21.638Z,61.84
2019-05-03T21:45:54.355Z,61.72
2019-05-03T21:48:24.937Z,61.35
2019-05-03T21:50:51.847Z,61.29
2019-05-03T21:53:19.683Z,61.25
2019-05-03T21:55:50.202Z,60.97
2019-05-03T21:58:18.243Z,61.06
2019-05-03T22:00:45.725Z,61.32
2019-05-03T22:03:14.653Z,61.74
2019-05-03T22:05:52.768Z,61.91
2019-05-03T22:08:11.567Z,61.35
2019-05-03T22:10:45.022Z,61.36
2019-05-03T22:13:11.479Z,61.27
2019-05-03T22:15:40.048Z,61.28
2019-05-03T22:18:15.139Z,61.21
2019-05-03T22:23:34.093Z,60.92
2019-05-03T22:26:05.144Z,61.19
2019-05-03T22:28:32.463Z,61.36
2019-05-03T22:31:06.228Z,61.08
2019-05-03T22:33:31.076Z,60.60
2019-05-03T22:36:08.704Z,60.57
2019-05-03T22:38:31.500Z,60.94
2019-05-03T22:43:51.876Z,60.86
2019-05-03T22:46:17.956Z,61.09
2019-05-03T22:48:48.854Z,61.16
2019-05-03T22:51:21.691Z,60.88
2019-05-03T22:53:48.799Z,61.17
2019-05-03T22:56:17.719Z,61.20
2019-05-03T22:58:47.507Z,61.23
2019-05-03T23:01:16.585Z,61.23
2019-05-03T23:03:44.910Z,61.02
2019-05-03T23:06:28.719Z,61.55
2019-05-03T23:08:56.155Z,61.69
2019-05-03T23:11:35.340Z,61.79
2019-05-03T23:14:00.818Z,62.00
2019-05-03T23:16:41.055Z,62.09
2019-05-03T23:19:11.523Z,61.73
2019-05-03T23:21:38.442Z,61.75
2019-05-03T23:24:06.093Z,61.88
2019-05-03T23:26:35.362Z,61.94
2019-05-03T23:29:02.018Z,61.90
2019-05-03T23:31:36.295Z,62.06
2019-05-03T23:36:40.198Z,62.26
2019-05-03T23:39:08.936Z,62.46
2019-05-03T23:41:36.891Z,62.57
2019-05-03T23:44:05.031Z,62.92
2019-05-03T23:46:32.367Z,62.36
2019-05-03T23:49:00.556Z,62.40
2019-05-03T23:51:29.434Z,62.16
2019-05-03T23:54:00.222Z,62.13
2019-05-03T23:56:30.892Z,62.16
2019-05-03T23:58:57.687Z,61.97
